Time;durP1;ratioP1;P1;durP2;ratioP2;P2;SDS_P1;SDS_P2;PMS_P1;PMS_P2;Temp;Humidity;BMP_temperature;BMP_pressure;BME280_temperature;BME280_humidity;BME280_pressure;Samples;Min_cycle;Max_cycle;Signal;HPM_P1;HPM_P2
2021/03/01 00:02:12;;;;;;;27.20;20.23;;;6.60;93.10;;;;;;5035707;28;20026;-66
2021/03/01 00:04:37;;;;;;;29.25;18.67;;;6.60;93.10;;;;;;5035495;28;20492;-65
2021/03/01 00:07:03;;;;;;;26.20;18.73;;;6.60;93.10;;;;;;5035860;28;20036;-65
2021/03/01 00:09:28;;;;;;;28.55;19.65;;;6.60;93.20;;;;;;5035780;28;20104;-68
2021/03/01 00:11:54;;;;;;;26.80;18.80;;;6.60;93.20;;;;;;5035229;28;20064;-66
2021/03/01 00:14:19;;;;;;;27.20;19.42;;;6.60;93.20;;;;;;5035356;28;20060;-66
2021/03/01 00:16:45;;;;;;;32.97;20.65;;;6.70;93.10;;;;;;5017871;28;20017;-65
2021/03/01 00:19:10;;;;;;;33.17;22.10;;;6.70;93.10;;;;;;5034860;28;20473;-67
2021/03/01 00:21:36;;;;;;;31.92;22.23;;;6.70;93.10;;;;;;5035685;28;20036;-68
2021/03/01 00:24:01;;;;;;;31.88;22.55;;;6.60;93.00;;;;;;5035788;28;20095;-67
2021/03/01 00:26:27;;;;;;;32.78;21.88;;;6.60;93.10;;;;;;5034542;28;20470;-66
2021/03/01 00:28:52;;;;;;;35.58;21.80;;;6.60;93.20;;;;;;5035377;28;20057;-66
2021/03/01 00:31:18;;;;;;;34.95;21.55;;;6.60;93.20;;;;;;5035275;28;20022;-66
2021/03/01 00:33:43;;;;;;;34.15;24.27;;;6.60;93.20;;;;;;5034748;28;20102;-67
2021/03/01 00:36:09;;;;;;;36.33;24.77;;;6.60;93.10;;;;;;5034983;28;20609;-65
2021/03/01 00:38:35;;;;;;;33.10;23.60;;;6.60;93.20;;;;;;5035649;28;20493;-66
2021/03/01 00:41:01;;;;;;;36.03;24.05;;;6.60;93.20;;;;;;5034645;28;20096;-67
2021/03/01 00:43:31;;;;;;;36.97;24.80;;;6.60;93.20;;;;;;5034861;28;20148;-65
2021/03/01 00:45:57;;;;;;;36.90;26.27;;;6.70;93.20;;;;;;5034381;28;20482;-65
2021/03/01 00:48:23;;;;;;;41.70;26.65;;;6.60;93.20;;;;;;5034700;28;20060;-65
2021/03/01 00:50:48;;;;;;;36.95;26.38;;;6.60;93.10;;;;;;5035329;28;20021;-67
2021/03/01 00:53:24;;;;;;;36.35;25.42;;;6.60;93.20;;;;;;5034065;28;20486;-65
2021/03/01 00:55:50;;;;;;;39.72;27.17;;;6.60;93.20;;;;;;5035097;28;20108;-66
2021/03/01 00:58:16;;;;;;;37.83;25.33;;;6.60;93.20;;;;;;5033645;28;20025;-65
2021/03/01 01:00:42;;;;;;;34.38;24.50;;;6.60;93.20;;;;;;5034001;28;20486;-66
2021/03/01 01:03:07;;;;;;;36.47;24.65;;;6.60;93.30;;;;;;5034843;28;20064;-66
2021/03/01 01:05:33;;;;;;;40.20;25.77;;;6.60;93.30;;;;;;5034530;28;20113;-65
2021/03/01 01:07:58;;;;;;;36.30;24.67;;;6.60;93.20;;;;;;5034176;28;20047;-65
2021/03/01 01:10:24;;;;;;;39.05;26.30;;;6.60;93.20;;;;;;5034491;28;20049;-67
2021/03/01 01:12:49;;;;;;;41.75;26.90;;;6.60;93.20;;;;;;5034781;28;20080;-68
2021/03/01 01:15:15;;;;;;;39.75;28.63;;;6.60;93.20;;;;;;5033567;28;20017;-66
2021/03/01 01:17:41;;;;;;;37.15;25.67;;;6.60;93.20;;;;;;5034494;28;20474;-69
2021/03/01 01:20:09;;;;;;;38.88;26.02;;;6.50;93.20;;;;;;5031995;28;20071;-67
2021/03/01 01:22:35;;;;;;;36.97;26.10;;;6.50;93.30;;;;;;5034369;28;20474;-66
2021/03/01 01:25:01;;;;;;;37.90;25.55;;;6.50;93.30;;;;;;5034513;28;20036;-66
2021/03/01 01:27:27;;;;;;;39.08;26.20;;;6.50;93.40;;;;;;5033520;28;20029;-66
2021/03/01 01:29:52;;;;;;;40.33;26.65;;;6.60;93.40;;;;;;5034531;28;20025;-68
2021/03/01 01:32:18;;;;;;;36.97;25.88;;;6.50;93.30;;;;;;5034208;28;20021;-69
2021/03/01 01:34:43;;;;;;;39.38;27.42;;;6.60;93.30;;;;;;5015858;28;20466;-69
2021/03/01 01:37:09;;;;;;;37.38;25.63;;;6.60;93.30;;;;;;5016160;28;20029;-66
2021/03/01 01:39:34;;;;;;;36.78;25.23;;;6.60;93.30;;;;;;5034563;28;20025;-68
2021/03/01 01:42:00;;;;;;;43.88;28.55;;;6.60;93.20;;;;;;5033543;28;20374;-68
2021/03/01 01:44:25;;;;;;;38.67;27.48;;;6.60;93.30;;;;;;5033722;28;20597;-67
2021/03/01 01:46:51;;;;;;;41.03;28.23;;;6.60;93.30;;;;;;5033784;28;20079;-67
2021/03/01 01:49:16;;;;;;;41.40;26.65;;;6.60;93.50;;;;;;5033072;28;20389;-67
2021/03/01 01:51:43;;;;;;;44.55;29.48;;;6.70;93.10;;;;;;5033993;28;20032;-66
2021/03/01 01:54:11;;;;;;;39.03;28.05;;;6.70;93.10;;;;;;5033741;28;20478;-65
2021/03/01 01:56:37;;;;;;;40.55;27.98;;;6.70;93.10;;;;;;5033105;28;20055;-66
2021/03/01 01:59:03;;;;;;;42.88;28.23;;;6.70;93.10;;;;;;5033770;28;20022;-67
2021/03/01 02:01:29;;;;;;;36.90;25.92;;;6.60;93.10;;;;;;5032810;28;20028;-68
2021/03/01 02:04:34;;;;;;;39.47;27.20;;;6.70;93.10;;;;;;5033736;28;20038;-65
2021/03/01 02:07:20;;;;;;;39.60;27.58;;;6.70;93.10;;;;;;5010898;28;20045;-65
2021/03/01 02:10:05;;;;;;;43.22;28.60;;;6.70;93.10;;;;;;5032622;28;20105;-65
2021/03/01 02:12:56;;;;;;;39.53;28.10;;;6.70;93.10;;;;;;5033310;28;20037;-65
2021/03/01 02:15:27;;;;;;;34.60;25.35;;;6.70;93.00;;;;;;5032605;28;20021;-64
2021/03/01 02:17:52;;;;;;;37.67;27.53;;;6.70;93.00;;;;;;5034170;28;20022;-64
2021/03/01 02:20:18;;;;;;;38.20;28.08;;;6.80;93.00;;;;;;5033070;28;20094;-66
2021/03/01 02:22:43;;;;;;;40.78;27.40;;;6.80;93.00;;;;;;5032695;28;20474;-65
2021/03/01 02:25:13;;;;;;;39.28;26.50;;;6.80;92.90;;;;;;5033017;28;20100;-64
2021/03/01 02:27:51;;;;;;;35.88;25.92;;;6.80;92.90;;;;;;5033515;28;20060;-65
2021/03/01 02:30:34;;;;;;;43.47;27.27;;;6.70;92.90;;;;;;5032525;28;20064;-65
2021/03/01 02:33:12;;;;;;;44.05;27.15;;;6.70;92.90;;;;;;5033179;28;20029;-65
2021/03/01 02:35:43;;;;;;;39.60;26.20;;;6.70;92.90;;;;;;5033191;28;20381;-65
2021/03/01 02:38:10;;;;;;;43.20;28.83;;;6.70;92.90;;;;;;5032214;28;20024;-65
2021/03/01 02:40:39;;;;;;;43.65;27.58;;;6.80;92.90;;;;;;5033188;28;20081;-64
2021/03/01 02:43:05;;;;;;;37.13;25.67;;;6.70;92.80;;;;;;5032961;28;20087;-64
2021/03/01 02:45:31;;;;;;;37.80;26.60;;;6.80;92.80;;;;;;5031917;28;20022;-65
2021/03/01 02:48:00;;;;;;;39.33;27.58;;;6.80;92.80;;;;;;5032868;28;20072;-65
2021/03/01 02:50:26;;;;;;;37.95;26.63;;;6.70;92.80;;;;;;5032806;28;20018;-65
2021/03/01 02:52:53;;;;;;;37.58;27.02;;;6.70;92.80;;;;;;5032307;28;20044;-65
2021/03/01 02:55:19;;;;;;;40.80;28.10;;;6.70;92.80;;;;;;5032442;28;20028;-64
2021/03/01 02:57:46;;;;;;;37.47;27.38;;;6.70;92.80;;;;;;5032213;28;20108;-67
2021/03/01 03:00:14;;;;;;;36.05;25.50;;;6.70;92.90;;;;;;5032452;28;20017;-66
2021/03/01 03:02:41;;;;;;;36.42;26.88;;;6.70;92.80;;;;;;5032741;28;20125;-65
2021/03/01 03:05:09;;;;;;;37.28;26.63;;;6.80;92.90;;;;;;5014439;28;20036;-65
2021/03/01 03:07:37;;;;;;;36.92;26.67;;;6.80;92.90;;;;;;5032739;28;20025;-65
2021/03/01 03:10:04;;;;;;;36.45;26.80;;;6.80;92.80;;;;;;5032692;28;20053;-70
2021/03/01 03:12:31;;;;;;;34.45;25.85;;;6.80;92.80;;;;;;5031627;28;20033;-69
2021/03/01 03:14:59;;;;;;;34.45;24.42;;;6.80;92.70;;;;;;5032707;28;20377;-67
2021/03/01 03:17:25;;;;;;;33.72;24.73;;;6.70;92.70;;;;;;5032498;28;20029;-67
2021/03/01 03:19:51;;;;;;;33.58;24.27;;;6.80;92.80;;;;;;5032166;28;20109;-66
2021/03/01 03:22:17;;;;;;;31.40;24.33;;;6.70;92.70;;;;;;5033782;28;20124;-67
2021/03/01 03:24:42;;;;;;;32.72;24.35;;;6.70;92.70;;;;;;5036951;28;20034;-67
2021/03/01 03:27:08;;;;;;;29.95;23.45;;;6.70;92.70;;;;;;5035982;28;20033;-66
2021/03/01 03:29:33;;;;;;;36.00;24.70;;;6.70;92.70;;;;;;5036679;28;20438;-66
2021/03/01 03:31:59;;;;;;;33.50;24.02;;;6.60;92.60;;;;;;5036590;28;20026;-68
2021/03/01 03:34:25;;;;;;;30.55;23.00;;;6.60;92.60;;;;;;5035610;28;20025;-66
2021/03/01 03:37:07;;;;;;;30.45;23.20;;;6.60;92.70;;;;;;5036405;28;20493;-65
2021/03/01 03:39:36;;;;;;;30.40;22.27;;;6.60;92.80;;;;;;5036342;28;20030;-66
2021/03/01 03:42:03;;;;;;;32.05;23.17;;;6.60;92.70;;;;;;5035600;28;20489;-66
2021/03/01 03:44:32;;;;;;;28.80;21.38;;;6.60;92.70;;;;;;5036082;28;20033;-66
2021/03/01 03:47:00;;;;;;;29.65;22.00;;;6.60;92.60;;;;;;5035384;28;20124;-66
2021/03/01 03:49:28;;;;;;;29.30;22.00;;;6.60;92.60;;;;;;5036081;28;20381;-65
2021/03/01 03:51:57;;;;;;;33.08;23.30;;;6.60;92.70;;;;;;5036254;28;20032;-65
2021/03/01 03:54:25;;;;;;;29.10;21.92;;;6.50;92.60;;;;;;5035386;28;20549;-66
2021/03/01 03:56:55;;;;;;;30.35;22.48;;;6.50;92.60;;;;;;5036039;28;20022;-66
2021/03/01 03:59:28;;;;;;;30.48;21.65;;;6.50;92.60;;;;;;5035827;28;20029;-65
2021/03/01 04:01:55;;;;;;;29.67;22.27;;;6.40;92.60;;;;;;5035420;28;20104;-64
2021/03/01 04:04:24;;;;;;;25.00;20.00;;;6.40;92.60;;;;;;5035731;28;20037;-65
2021/03/01 04:06:50;;;;;;;29.13;21.85;;;6.40;92.60;;;;;;5035954;28;20028;-66
2021/03/01 04:09:19;;;;;;;25.08;20.63;;;6.40;92.60;;;;;;5035023;28;20021;-65
2021/03/01 04:11:47;;;;;;;30.60;22.55;;;6.30;92.70;;;;;;5035858;28;20365;-65
2021/03/01 04:14:20;;;;;;;28.05;21.52;;;6.30;92.70;;;;;;5035635;28;20025;-65
2021/03/01 04:16:47;;;;;;;29.65;21.25;;;6.40;92.80;;;;;;5034979;28;20044;-65
2021/03/01 04:19:15;;;;;;;25.92;20.63;;;6.30;92.70;;;;;;5035516;28;20026;-66
2021/03/01 04:21:42;;;;;;;27.00;20.60;;;6.40;92.70;;;;;;5035689;28;20025;-67
2021/03/01 04:24:10;;;;;;;28.48;21.00;;;6.30;92.70;;;;;;5034866;28;20041;-66
2021/03/01 04:26:36;;;;;;;26.83;20.27;;;6.20;92.80;;;;;;5035484;28;20367;-64
2021/03/01 04:29:02;;;;;;;27.60;20.58;;;6.20;92.80;;;;;;5034965;28;20087;-65
2021/03/01 04:31:29;;;;;;;25.63;19.63;;;6.20;92.90;;;;;;5035257;28;20096;-67
2021/03/01 04:33:56;;;;;;;28.35;21.35;;;6.20;92.90;;;;;;5035558;28;20492;-65
2021/03/01 04:36:24;;;;;;;27.48;20.45;;;6.20;93.00;;;;;;5034456;28;20021;-66
2021/03/01 04:38:49;;;;;;;26.33;20.65;;;6.20;93.00;;;;;;5035342;28;20021;-64
2021/03/01 04:41:16;;;;;;;28.02;21.35;;;6.20;93.00;;;;;;5035111;28;20032;-63
2021/03/01 04:43:42;;;;;;;29.25;21.55;;;6.30;93.00;;;;;;5034780;28;20033;-64
2021/03/01 04:46:08;;;;;;;26.63;20.58;;;6.30;92.80;;;;;;5035137;28;20022;-65
2021/03/01 04:48:35;;;;;;;29.20;21.63;;;6.30;92.90;;;;;;5035086;28;20505;-65
2021/03/01 04:51:01;;;;;;;27.13;21.35;;;6.20;92.90;;;;;;5016868;28;20374;-64
2021/03/01 04:53:28;;;;;;;27.17;21.13;;;6.20;92.80;;;;;;5034815;28;20025;-66
2021/03/01 04:55:55;;;;;;;29.55;21.65;;;6.20;92.80;;;;;;5035121;28;20104;-65
2021/03/01 04:58:22;;;;;;;28.98;22.33;;;6.20;92.70;;;;;;5034037;28;20026;-66
2021/03/01 05:00:48;;;;;;;29.20;22.40;;;6.20;92.80;;;;;;5035072;28;20033;-65
2021/03/01 05:03:14;;;;;;;30.88;22.90;;;6.20;92.80;;;;;;5034568;28;20037;-65
2021/03/01 05:05:41;;;;;;;31.38;22.70;;;6.20;92.80;;;;;;5034185;28;20470;-64
2021/03/01 05:08:12;;;;;;;30.50;22.08;;;6.20;92.80;;;;;;5034862;28;20486;-64
2021/03/01 05:10:39;;;;;;;29.63;22.25;;;6.20;92.80;;;;;;5035080;28;20536;-66
2021/03/01 05:13:05;;;;;;;27.90;22.27;;;6.20;92.80;;;;;;5034168;28;20068;-67
2021/03/01 05:15:31;;;;;;;29.08;21.98;;;6.20;92.70;;;;;;5034792;28;20014;-64
2021/03/01 05:17:57;;;;;;;32.13;23.83;;;6.10;92.60;;;;;;5034874;28;20049;-65
2021/03/01 05:20:23;;;;;;;27.88;22.23;;;6.10;92.70;;;;;;5033644;28;20041;-66
2021/03/01 05:22:48;;;;;;;30.73;22.50;;;6.10;92.70;;;;;;5034330;28;20506;-65
2021/03/01 05:25:14;;;;;;;29.92;22.25;;;6.00;92.70;;;;;;5033943;28;20462;-64
2021/03/01 05:27:40;;;;;;;30.52;21.52;;;6.00;92.80;;;;;;5046299;28;20021;-67
2021/03/01 05:30:10;;;;;;;32.13;22.20;;;6.00;92.80;;;;;;5034631;28;20067;-66
2021/03/01 05:32:36;;;;;;;46.03;28.95;;;6.00;92.70;;;;;;5044307;28;20025;-66
2021/03/01 05:35:03;;;;;;;32.72;24.20;;;5.90;92.70;;;;;;5048276;28;20051;-69
2021/03/01 05:37:29;;;;;;;32.20;23.08;;;5.90;92.70;;;;;;5034919;28;20025;-65
2021/03/01 05:39:54;;;;;;;31.92;23.50;;;5.90;92.80;;;;;;5055633;28;20040;-66
2021/03/01 05:42:22;;;;;;;102.70;27.17;;;5.90;92.80;;;;;;5057001;28;20033;-67
2021/03/01 05:44:47;;;;;;;108.60;31.48;;;5.80;92.80;;;;;;5053319;28;20075;-67
2021/03/01 05:47:13;;;;;;;35.22;25.02;;;5.80;92.90;;;;;;5047628;28;20049;-67
2021/03/01 05:49:40;;;;;;;33.90;25.08;;;5.80;92.90;;;;;;5054111;28;20028;-67
2021/03/01 05:52:07;;;;;;;33.47;24.20;;;5.80;93.00;;;;;;5047541;28;20030;-68
2021/03/01 05:54:35;;;;;;;34.53;25.15;;;5.70;93.00;;;;;;5015095;28;20430;-65
2021/03/01 05:57:05;;;;;;;32.92;24.75;;;5.80;93.00;;;;;;5027509;28;20411;-66
2021/03/01 05:59:32;;;;;;;95.10;28.92;;;5.80;93.00;;;;;;5028863;28;20524;-71
2021/03/01 06:01:58;;;;;;;34.33;25.13;;;5.80;93.00;;;;;;5033125;28;20070;-67
2021/03/01 06:04:24;;;;;;;37.38;26.63;;;5.80;92.80;;;;;;5042903;28;20024;-67
2021/03/01 06:06:50;;;;;;;35.95;25.35;;;5.80;92.80;;;;;;5052216;28;20093;-67
2021/03/01 06:09:16;;;;;;;35.95;25.33;;;5.90;93.00;;;;;;5052151;28;20108;-67
2021/03/01 06:11:42;;;;;;;36.22;26.25;;;5.90;92.60;;;;;;5047608;28;20021;-67
2021/03/01 06:14:07;;;;;;;35.90;23.58;;;5.90;92.60;;;;;;5033383;28;20045;-69
2021/03/01 06:16:33;;;;;;;39.28;26.20;;;5.90;92.50;;;;;;5048577;28;20473;-69
2021/03/01 06:18:59;;;;;;;37.10;25.88;;;5.90;92.50;;;;;;5053074;28;20047;-67
2021/03/01 06:21:24;;;;;;;36.63;26.08;;;5.90;92.50;;;;;;5053024;28;20559;-68
2021/03/01 06:23:52;;;;;;;37.95;26.60;;;5.90;92.40;;;;;;5051950;28;20115;-69
2021/03/01 06:26:23;;;;;;;96.05;28.95;;;5.90;92.30;;;;;;5051893;28;20031;-69
2021/03/01 06:28:51;;;;;;;34.65;25.23;;;5.90;92.20;;;;;;5052322;28;20112;-70
2021/03/01 06:31:43;;;;;;;36.55;25.42;;;5.90;92.10;;;;;;5052827;28;20027;-71
2021/03/01 06:34:22;;;;;;;37.38;25.85;;;5.90;92.10;;;;;;5069265;28;20020;-69
2021/03/01 06:36:58;;;;;;;38.25;25.98;;;5.90;92.10;;;;;;5072292;28;20021;-69
2021/03/01 06:39:49;;;;;;;33.40;24.45;;;5.90;92.10;;;;;;5058743;28;20017;-69
2021/03/01 06:42:18;;;;;;;40.13;26.38;;;5.90;92.00;;;;;;5032634;28;20035;-71
2021/03/01 06:44:44;;;;;;;38.17;25.83;;;5.90;92.00;;;;;;5040963;28;20021;-67
2021/03/01 06:47:09;;;;;;;34.05;24.02;;;5.80;92.30;;;;;;5050080;28;20051;-70
2021/03/01 06:49:36;;;;;;;39.95;26.83;;;5.80;92.00;;;;;;5051780;28;20151;-68
2021/03/01 06:52:02;;;;;;;39.03;26.65;;;5.70;92.10;;;;;;5052022;28;20024;-71
2021/03/01 06:54:27;;;;;;;40.30;28.02;;;5.60;92.20;;;;;;5034717;28;20033;-70
2021/03/01 06:56:53;;;;;;;40.30;27.45;;;5.60;92.20;;;;;;5051256;28;20024;-70
2021/03/01 06:59:20;;;;;;;38.95;26.70;;;5.50;92.30;;;;;;5052263;28;20029;-71
2021/03/01 07:01:49;;;;;;;37.90;25.15;;;5.50;92.40;;;;;;5051908;28;20017;-71
2021/03/01 07:04:22;;;;;;;37.97;25.00;;;5.50;92.40;;;;;;5050996;28;20041;-69
2021/03/01 07:06:49;;;;;;;34.20;24.88;;;5.60;92.40;;;;;;5052434;28;20059;-70
2021/03/01 07:09:16;;;;;;;38.80;25.30;;;5.60;92.40;;;;;;5034062;28;20025;-70
2021/03/01 07:11:44;;;;;;;37.85;25.85;;;5.60;92.30;;;;;;5045160;28;20022;-70
2021/03/01 07:14:15;;;;;;;34.78;24.13;;;5.60;92.40;;;;;;5033721;28;20126;-69
2021/03/01 07:16:46;;;;;;;37.08;25.75;;;5.60;92.40;;;;;;5051662;28;20017;-70
2021/03/01 07:19:18;;;;;;;36.60;25.40;;;5.60;92.30;;;;;;5051270;28;20020;-72
2021/03/01 07:21:46;;;;;;;36.58;25.38;;;5.60;92.30;;;;;;5043765;28;20013;-72
2021/03/01 07:24:15;;;;;;;34.70;23.08;;;5.60;92.30;;;;;;5034166;28;20033;-72
2021/03/01 07:26:41;;;;;;;33.30;21.48;;;5.60;92.40;;;;;;5032668;28;20021;-71
2021/03/01 07:29:17;;;;;;;32.83;22.77;;;5.60;92.30;;;;;;5032491;28;20043;-70
2021/03/01 07:31:54;;;;;;;29.55;21.48;;;5.50;92.30;;;;;;5033639;28;20033;-71
2021/03/01 07:34:20;;;;;;;31.15;21.45;;;5.60;92.20;;;;;;5032209;28;20030;-68
2021/03/01 07:36:46;;;;;;;34.63;22.25;;;5.60;92.20;;;;;;5033606;28;20366;-68
2021/03/01 07:39:12;;;;;;;34.83;22.27;;;5.60;92.20;;;;;;5031514;28;20026;-68
2021/03/01 07:41:38;;;;;;;34.70;22.25;;;5.60;92.10;;;;;;5032506;28;20036;-68
2021/03/01 07:44:05;;;;;;;30.52;21.70;;;5.60;92.10;;;;;;5032308;28;20080;-68
2021/03/01 07:46:36;;;;;;;29.65;21.52;;;5.50;92.10;;;;;;5031121;28;20017;-68
2021/03/01 07:49:02;;;;;;;34.88;22.88;;;5.50;92.20;;;;;;5014880;28;20028;-70
2021/03/01 07:51:48;;;;;;;34.92;22.65;;;5.40;92.30;;;;;;5031991;28;20029;-68
2021/03/01 07:54:16;;;;;;;32.15;23.08;;;5.50;92.40;;;;;;5031254;28;20053;-69
2021/03/01 07:56:43;;;;;;;35.55;23.08;;;5.50;92.40;;;;;;5032247;28;20017;-69
2021/03/01 07:59:10;;;;;;;34.00;23.30;;;5.60;92.50;;;;;;5031811;28;20040;-68
2021/03/01 08:01:37;;;;;;;31.23;21.95;;;5.60;92.50;;;;;;5031703;28;20018;-70
2021/03/01 08:04:03;;;;;;;30.92;22.45;;;5.70;92.40;;;;;;5032143;28;20033;-69
2021/03/01 08:06:57;;;;;;;31.98;22.27;;;5.80;92.40;;;;;;5031907;28;20033;-68
2021/03/01 08:09:46;;;;;;;35.05;22.70;;;5.80;92.30;;;;;;5016466;28;20017;-71
2021/03/01 08:12:32;;;;;;;32.67;22.05;;;5.80;92.20;;;;;;5035663;28;20024;-67
2021/03/01 08:15:05;;;;;;;34.45;22.77;;;5.80;92.10;;;;;;5034965;28;20022;-69
2021/03/01 08:17:39;;;;;;;35.20;23.65;;;5.80;92.00;;;;;;5035502;28;20029;-70
2021/03/01 08:20:04;;;;;;;29.90;22.52;;;5.80;92.10;;;;;;5035808;28;20036;-69
2021/03/01 08:22:30;;;;;;;35.63;24.35;;;5.70;92.00;;;;;;5034600;28;20481;-68
2021/03/01 08:24:57;;;;;;;33.05;23.00;;;5.70;92.10;;;;;;5035854;28;20034;-69
2021/03/01 08:27:25;;;;;;;30.77;21.27;;;5.70;92.20;;;;;;5035238;28;20021;-68
2021/03/01 08:30:19;;;;;;;33.53;22.50;;;5.70;92.20;;;;;;5034877;28;20057;-70
2021/03/01 08:33:08;;;;;;;31.65;22.02;;;5.70;92.20;;;;;;5035611;28;20037;-69
2021/03/01 08:35:34;;;;;;;31.15;21.92;;;5.80;92.20;;;;;;5016925;28;20053;-69
2021/03/01 08:38:00;;;;;;;30.88;20.50;;;5.80;92.30;;;;;;5035367;28;20068;-68
2021/03/01 08:40:25;;;;;;;30.52;21.48;;;5.80;92.30;;;;;;5034993;28;20041;-68
2021/03/01 08:43:04;;;;;;;30.10;21.42;;;5.90;92.20;;;;;;5034557;28;20427;-69
2021/03/01 08:45:36;;;;;;;32.50;25.05;;;6.00;92.10;;;;;;5034970;28;20029;-70
2021/03/01 08:48:03;;;;;;;29.38;20.35;;;5.90;91.90;;;;;;5034967;28;20049;-69
2021/03/01 08:50:32;;;;;;;26.73;19.20;;;5.90;92.00;;;;;;5016558;28;20026;-69
2021/03/01 08:52:58;;;;;;;29.02;19.23;;;6.00;91.90;;;;;;5034994;28;20110;-69
2021/03/01 08:55:24;;;;;;;26.95;19.20;;;6.10;91.90;;;;;;5016625;28;20493;-70
2021/03/01 08:58:03;;;;;;;27.42;19.42;;;6.20;91.80;;;;;;5034373;28;20082;-68
2021/03/01 09:00:30;;;;;;;26.77;18.17;;;6.30;91.80;;;;;;5034885;28;20129;-69
2021/03/01 09:03:09;;;;;;;30.02;19.45;;;6.30;91.70;;;;;;5034970;28;20141;-68
2021/03/01 09:05:35;;;;;;;33.35;21.00;;;6.50;91.60;;;;;;5033974;28;20030;-68
2021/03/01 09:08:01;;;;;;;29.23;20.27;;;6.50;91.50;;;;;;5034792;28;20037;-70
2021/03/01 09:10:46;;;;;;;28.73;18.98;;;6.60;91.40;;;;;;5033805;28;20363;-70
2021/03/01 09:13:23;;;;;;;28.02;19.25;;;6.60;91.20;;;;;;5016957;28;20025;-68
2021/03/01 09:15:48;;;;;;;28.17;20.45;;;6.70;91.20;;;;;;5034820;28;20051;-69
2021/03/01 09:18:15;;;;;;;27.30;19.13;;;6.80;91.10;;;;;;5016010;28;20025;-68
2021/03/01 09:20:56;;;;;;;27.48;19.83;;;6.70;90.90;;;;;;5033536;28;20504;-69
2021/03/01 09:23:37;;;;;;;30.60;18.85;;;6.70;91.00;;;;;;5016527;28;20120;-69
2021/03/01 09:26:05;;;;;;;22.38;17.50;;;6.60;90.90;;;;;;5033895;28;20155;-70
2021/03/01 09:28:33;;;;;;;25.73;18.58;;;6.50;91.00;;;;;;5016334;28;20063;-70
2021/03/01 09:31:02;;;;;;;28.85;20.35;;;6.50;91.20;;;;;;5034336;28;20025;-70
2021/03/01 09:33:29;;;;;;;26.77;17.45;;;6.50;91.20;;;;;;5015548;28;20501;-70
2021/03/01 09:35:54;;;;;;;24.80;17.33;;;6.40;91.20;;;;;;5034295;28;20024;-68
2021/03/01 09:38:20;;;;;;;24.67;16.73;;;6.40;91.30;;;;;;5033967;28;20026;-70
2021/03/01 09:40:46;;;;;;;25.58;17.38;;;6.40;91.10;;;;;;5033489;28;20021;-70
2021/03/01 09:43:12;;;;;;;26.02;17.48;;;6.30;91.20;;;;;;5033611;28;20112;-70
2021/03/01 09:45:38;;;;;;;27.75;17.23;;;6.30;91.30;;;;;;5033332;28;20457;-71
2021/03/01 09:48:05;;;;;;;23.92;17.10;;;6.40;91.20;;;;;;5015986;28;20506;-70
2021/03/01 09:50:31;;;;;;;28.25;16.88;;;6.40;91.40;;;;;;5033736;28;20466;-70
2021/03/01 09:52:57;;;;;;;23.25;15.88;;;6.50;91.20;;;;;;5033357;28;20114;-70
2021/03/01 09:55:24;;;;;;;24.65;16.35;;;6.60;91.20;;;;;;5015718;28;20028;-70
2021/03/01 09:57:50;;;;;;;25.27;17.25;;;6.70;91.20;;;;;;5033803;28;20064;-71
2021/03/01 10:00:31;;;;;;;24.33;16.85;;;6.80;91.00;;;;;;5032484;28;20017;-70
2021/03/01 10:03:02;;;;;;;25.23;16.55;;;6.80;90.90;;;;;;5033772;28;20485;-68
2021/03/01 10:05:29;;;;;;;;;;;6.90;90.80;;;;;;5033837;28;21005;-69
2021/03/01 10:08:03;;;;;;;34.42;23.58;;;6.90;90.80;;;;;;5033084;28;20258;-69
2021/03/01 10:10:40;;;;;;;23.80;16.60;;;6.90;90.70;;;;;;5033317;28;20030;-69
2021/03/01 10:13:07;;;;;;;26.60;16.52;;;6.90;90.70;;;;;;5033739;28;20029;-69
2021/03/01 10:15:48;;;;;;;23.92;15.90;;;6.90;90.80;;;;;;5032524;28;20359;-68
2021/03/01 10:18:15;;;;;;;24.53;16.80;;;7.00;90.70;;;;;;5033487;28;20026;-68
2021/03/01 10:21:00;;;;;;;25.77;16.75;;;7.20;90.60;;;;;;5033169;28;20284;-68
2021/03/01 10:23:42;;;;;;;23.38;16.00;;;7.20;90.40;;;;;;5032950;28;20121;-70
2021/03/01 10:26:14;;;;;;;24.60;15.80;;;7.20;90.30;;;;;;5033206;28;20421;-69
2021/03/01 10:29:01;;;;;;;21.27;15.50;;;7.30;90.30;;;;;;5032627;28;20021;-69
2021/03/01 10:31:35;;;;;;;24.40;16.33;;;7.30;90.20;;;;;;5032200;28;20049;-70
2021/03/01 10:34:14;;;;;;;24.30;17.02;;;7.30;90.30;;;;;;5015658;28;20040;-69
2021/03/01 10:36:39;;;;;;;25.42;16.38;;;7.50;90.20;;;;;;5032544;28;20103;-68
2021/03/01 10:39:21;;;;;;;23.05;16.58;;;7.50;90.10;;;;;;5033069;28;20474;-69
2021/03/01 10:41:48;;;;;;;25.85;16.30;;;7.60;90.00;;;;;;5032470;28;20021;-69
2021/03/01 10:44:16;;;;;;;23.25;16.63;;;7.70;90.00;;;;;;5014812;28;20033;-68
2021/03/01 10:46:46;;;;;;;23.15;16.02;;;7.80;89.90;;;;;;5032739;28;20075;-68
2021/03/01 10:49:27;;;;;;;25.80;17.48;;;7.80;89.50;;;;;;5014318;28;20029;-69
2021/03/01 10:51:55;;;;;;;23.55;15.90;;;7.90;89.20;;;;;;5015753;28;20045;-68
2021/03/01 10:54:21;;;;;;;21.75;17.15;;;8.00;89.20;;;;;;5032676;28;20017;-68
2021/03/01 10:56:47;;;;;;;23.05;17.15;;;8.20;89.00;;;;;;5014576;28;20084;-69
2021/03/01 10:59:13;;;;;;;25.42;17.10;;;8.20;88.30;;;;;;5032757;28;20417;-70
2021/03/01 11:01:41;;;;;;;23.05;16.73;;;8.30;88.10;;;;;;5032838;28;20417;-69
2021/03/01 11:04:08;;;;;;;25.92;16.02;;;8.30;87.70;;;;;;5032126;28;20061;-69
2021/03/01 11:06:34;;;;;;;24.35;15.82;;;8.30;87.40;;;;;;5032455;28;20032;-68
2021/03/01 11:09:01;;;;;;;22.13;16.52;;;8.30;87.50;;;;;;5015333;28;20505;-69
2021/03/01 11:11:27;;;;;;;24.00;17.17;;;8.40;87.20;;;;;;5031569;28;20037;-70
2021/03/01 11:13:53;;;;;;;22.83;16.08;;;8.40;86.90;;;;;;5032801;28;20030;-67
2021/03/01 11:16:18;;;;;;;21.33;16.05;;;8.40;86.60;;;;;;5032345;28;20025;-68
2021/03/01 11:18:44;;;;;;;21.70;15.35;;;8.50;86.70;;;;;;5031953;28;20105;-70
2021/03/01 11:21:10;;;;;;;21.08;14.85;;;8.50;86.40;;;;;;5032366;28;20099;-68
2021/03/01 11:23:36;;;;;;;19.77;14.35;;;8.60;86.10;;;;;;5014532;28;20037;-68
2021/03/01 11:26:02;;;;;;;18.92;13.75;;;8.60;85.90;;;;;;5031866;28;20378;-67
2021/03/01 11:28:28;;;;;;;21.13;13.27;;;8.60;86.20;;;;;;5032287;28;20486;-68
2021/03/01 11:30:54;;;;;;;19.08;13.65;;;8.60;85.60;;;;;;5032555;28;20033;-68
2021/03/01 11:33:20;;;;;;;18.00;13.73;;;8.70;85.60;;;;;;5013590;28;20037;-69
2021/03/01 11:35:46;;;;;;;21.58;15.05;;;8.70;85.10;;;;;;5044107;28;20096;-68
2021/03/01 11:38:12;;;;;;;21.80;13.80;;;8.70;85.00;;;;;;5031446;28;20048;-68
2021/03/01 11:40:37;;;;;;;20.15;14.10;;;8.70;85.60;;;;;;5039339;28;20025;-69
2021/03/01 11:43:03;;;;;;;20.85;13.95;;;8.80;85.40;;;;;;5053091;28;20033;-69
2021/03/01 11:45:29;;;;;;;23.48;14.38;;;8.90;85.20;;;;;;5055430;28;20032;-70
2021/03/01 11:47:55;;;;;;;18.42;12.77;;;9.00;85.00;;;;;;5053392;28;20034;-72
2021/03/01 11:50:21;;;;;;;17.27;12.80;;;9.20;84.90;;;;;;5037589;28;20039;-69
2021/03/01 11:52:46;;;;;;;19.40;13.35;;;9.30;84.40;;;;;;5055006;28;20033;-67
2021/03/01 11:55:12;;;;;;;16.65;12.13;;;9.50;84.00;;;;;;5054449;28;20051;-70
2021/03/01 11:57:40;;;;;;;15.30;11.60;;;9.60;83.50;;;;;;5052761;28;20029;-68
2021/03/01 12:00:07;;;;;;;17.83;12.30;;;9.70;82.90;;;;;;5042129;28;20037;-67
2021/03/01 12:02:33;;;;;;;18.13;12.23;;;9.60;82.60;;;;;;5035899;28;20034;-67
2021/03/01 12:04:59;;;;;;;16.60;11.70;;;9.40;82.70;;;;;;5054210;28;20028;-68
2021/03/01 12:07:25;;;;;;;18.73;13.27;;;9.10;83.30;;;;;;5052813;28;20082;-67
2021/03/01 12:09:50;;;;;;;16.30;12.20;;;8.80;84.10;;;;;;5055418;28;20483;-68
2021/03/01 12:12:16;;;;;;;19.15;13.18;;;8.50;85.00;;;;;;5055074;28;20112;-67
2021/03/01 12:14:41;;;;;;;16.77;12.00;;;8.40;86.00;;;;;;5054973;28;20056;-66
2021/03/01 12:17:07;;;;;;;18.67;11.95;;;8.40;86.70;;;;;;5055218;28;20032;-67
2021/03/01 12:19:33;;;;;;;16.25;11.77;;;8.40;86.80;;;;;;5055396;28;20103;-67
2021/03/01 12:21:58;;;;;;;16.15;11.82;;;8.40;86.80;;;;;;5053033;28;20043;-68
2021/03/01 12:24:24;;;;;;;19.67;12.13;;;8.40;86.90;;;;;;5025384;28;20199;-68
2021/03/01 12:26:50;;;;;;;15.82;11.07;;;8.50;87.10;;;;;;5055372;28;20021;-70
2021/03/01 12:29:15;;;;;;;16.17;11.90;;;8.50;87.10;;;;;;5054521;28;20024;-68
2021/03/01 12:31:41;;;;;;;15.15;11.35;;;8.60;87.00;;;;;;5054598;28;20079;-67
2021/03/01 12:34:06;;;;;;;14.45;10.68;;;8.60;87.00;;;;;;5053238;28;20057;-74
2021/03/01 12:36:32;;;;;;;17.75;12.10;;;8.70;87.10;;;;;;5048217;28;20013;-73
2021/03/01 12:38:57;;;;;;;18.13;12.25;;;8.70;87.00;;;;;;5054310;28;20052;-71
2021/03/01 12:41:23;;;;;;;18.45;12.30;;;8.80;86.90;;;;;;5053089;28;20025;-71
2021/03/01 12:43:49;;;;;;;19.50;13.02;;;8.90;86.80;;;;;;5054768;28;20036;-70
2021/03/01 12:46:15;;;;;;;15.90;11.50;;;8.90;86.40;;;;;;5067481;28;20428;-73